Time;durP1;ratioP1;P1;durP2;ratioP2;P2;SDS_P1;SDS_P2;PMS_P1;PMS_P2;Temp;Humidity;BMP_temperature;BMP_pressure;BME280_temperature;BME280_humidity;BME280_pressure;Samples;Min_cycle;Max_cycle;Signal;HPM_P1;HPM_P2
2021/12/05 00:17:29;;;;;;;20.35;18.17;;;4.90;99.90;;;;;;5110570;28;20397;-67
2021/12/05 00:20:02;;;;;;;21.67;16.95;;;4.90;99.90;;;;;;5109925;28;20301;-67
2021/12/05 00:22:35;;;;;;;21.50;19.05;;;4.80;99.90;;;;;;5105351;28;20317;-67
2021/12/05 00:25:04;;;;;;;19.08;16.75;;;4.70;99.90;;;;;;5108948;28;21292;-67
2021/12/05 00:27:37;;;;;;;20.77;17.65;;;4.80;99.90;;;;;;5107739;28;20283;-67
2021/12/05 00:30:16;;;;;;;20.75;17.55;;;4.80;99.90;;;;;;5104148;28;21040;-67
2021/12/05 00:32:51;;;;;;;19.60;16.75;;;4.90;99.90;;;;;;5110124;28;20772;-67
2021/12/05 00:35:56;;;;;;;19.08;16.17;;;4.90;99.90;;;;;;5106257;28;20214;-67
2021/12/05 00:41:26;;;;;;;20.48;18.15;;;4.90;99.90;;;;;;5101371;27;20272;-67
2021/12/05 00:44:49;;;;;;;19.25;15.32;;;4.90;99.90;;;;;;5115658;27;20230;-67
2021/12/05 00:47:30;;;;;;;17.75;14.63;;;4.80;99.90;;;;;;5107354;27;20253;-67
2021/12/05 00:50:30;;;;;;;19.60;16.17;;;4.80;99.90;;;;;;5102956;27;20237;-67
2021/12/05 00:53:32;;;;;;;19.83;16.10;;;4.80;99.90;;;;;;5114980;27;20233;-68
2021/12/05 00:56:09;;;;;;;17.38;15.23;;;4.70;99.90;;;;;;5114872;27;20297;-67
2021/12/05 01:04:36;;;;;;;16.90;13.57;;;4.80;99.90;;;;;;5104172;28;20225;-68
2021/12/05 01:07:21;;;;;;;17.50;15.00;;;4.80;99.90;;;;;;5114463;27;20240;-67
2021/12/05 01:09:53;;;;;;;18.05;15.40;;;4.80;99.90;;;;;;5108102;27;20218;-67
2021/12/05 01:12:41;;;;;;;18.10;15.32;;;4.80;99.90;;;;;;5114446;27;20290;-67
2021/12/05 01:15:11;;;;;;;17.08;15.43;;;4.70;99.90;;;;;;5111734;27;20300;-67
2021/12/05 01:17:52;;;;;;;20.17;18.00;;;4.70;99.90;;;;;;5104934;28;20324;-67
2021/12/05 01:20:19;;;;;;;43.03;37.10;;;4.70;99.90;;;;;;5113217;27;20234;-67
2021/12/05 01:22:53;;;;;;;46.60;41.55;;;4.70;99.90;;;;;;5102019;27;20231;-67
2021/12/05 01:25:32;;;;;;;109.07;85.25;;;4.70;99.90;;;;;;5101239;28;20283;-67
2021/12/05 01:28:08;;;;;;;49.47;41.55;;;4.70;99.90;;;;;;5112911;28;20571;-67
2021/12/05 01:30:43;;;;;;;30.75;27.45;;;4.70;99.90;;;;;;5100839;28;21446;-67
2021/12/05 01:33:17;;;;;;;22.73;18.98;;;4.70;99.90;;;;;;5109219;27;20222;-67
2021/12/05 01:35:56;;;;;;;22.08;19.67;;;4.80;99.90;;;;;;5108158;27;20298;-67
2021/12/05 01:38:38;;;;;;;21.83;18.35;;;4.80;99.90;;;;;;5100602;28;20301;-67
2021/12/05 01:50:06;;;;;;;18.85;16.90;;;4.90;99.90;;;;;;5090569;28;20258;-67
2021/12/05 01:52:54;;;;;;;17.73;15.75;;;4.90;99.90;;;;;;5110773;27;20309;-67
2021/12/05 02:01:20;;;;;;;18.50;15.65;;;5.00;99.90;;;;;;5100981;28;20271;-67
2021/12/05 02:09:44;;;;;;;17.77;14.80;;;5.10;99.90;;;;;;5110063;27;20229;-67
2021/12/05 02:15:09;;;;;;;19.92;17.77;;;5.10;99.90;;;;;;5113174;27;20230;-67
2021/12/05 02:15:50;;;;;;;17.35;15.38;;;5.10;99.90;;;;;;5107514;28;20223;-67
2021/12/05 02:35:38;;;;;;;21.27;17.95;;;5.10;99.90;;;;;;5056876;28;20222;-67
2021/12/05 02:38:26;;;;;;;20.67;17.98;;;5.00;99.90;;;;;;5110517;28;20227;-67
2021/12/05 02:41:10;;;;;;;21.92;18.15;;;5.00;99.90;;;;;;5107453;28;20216;-67
2021/12/05 02:43:40;;;;;;;22.42;18.88;;;5.00;99.90;;;;;;5113341;27;20222;-67
2021/12/05 02:46:12;;;;;;;22.27;19.05;;;5.00;99.90;;;;;;5099260;28;20243;-67
2021/12/05 02:48:39;;;;;;;21.80;19.30;;;5.00;99.90;;;;;;5113250;27;20215;-67
2021/12/05 02:51:10;;;;;;;23.00;19.77;;;5.00;99.90;;;;;;5112375;27;20226;-67
2021/12/05 02:53:42;;;;;;;24.55;20.58;;;5.00;99.90;;;;;;5100595;28;20233;-67
2021/12/05 02:56:12;;;;;;;26.40;21.02;;;5.10;99.90;;;;;;5112653;28;20226;-67
2021/12/05 02:58:44;;;;;;;26.83;20.88;;;5.00;99.90;;;;;;5099540;28;20219;-67
2021/12/05 03:01:18;;;;;;;24.67;18.02;;;5.00;99.90;;;;;;5112633;28;20261;-67
2021/12/05 03:03:46;;;;;;;25.50;20.05;;;5.00;99.90;;;;;;5099414;28;20220;-67
2021/12/05 03:06:19;;;;;;;23.88;19.60;;;5.10;99.90;;;;;;5112498;27;20233;-67
2021/12/05 03:08:50;;;;;;;25.52;19.88;;;5.00;99.90;;;;;;5112708;27;20233;-67
2021/12/05 03:11:18;;;;;;;23.33;19.95;;;5.10;99.90;;;;;;5112569;27;20387;-67
2021/12/05 03:13:46;;;;;;;25.48;20.95;;;5.10;99.90;;;;;;5112793;28;20241;-67
2021/12/05 03:16:15;;;;;;;24.42;19.92;;;5.20;99.90;;;;;;5099830;28;20318;-67
2021/12/05 03:18:43;;;;;;;23.98;19.88;;;5.20;99.90;;;;;;5105860;28;20250;-67
2021/12/05 03:21:11;;;;;;;30.85;21.13;;;5.30;99.90;;;;;;5105296;28;20692;-67
2021/12/05 03:23:41;;;;;;;26.02;21.20;;;5.30;99.90;;;;;;5099783;28;20567;-67
2021/12/05 03:26:12;;;;;;;20.95;18.10;;;5.30;99.90;;;;;;5111196;28;20226;-67
2021/12/05 03:28:39;;;;;;;23.23;20.08;;;5.30;99.90;;;;;;5100661;28;20218;-68
2021/12/05 03:31:08;;;;;;;25.05;20.75;;;5.40;99.90;;;;;;5098539;28;20227;-67
2021/12/05 03:33:36;;;;;;;28.08;21.15;;;5.40;99.90;;;;;;5105792;28;20218;-67
2021/12/05 03:36:04;;;;;;;21.60;19.30;;;5.40;99.90;;;;;;5108188;28;20268;-67
2021/12/05 03:38:31;;;;;;;24.40;19.65;;;5.40;99.90;;;;;;5099960;28;20223;-67
2021/12/05 03:41:01;;;;;;;26.10;21.77;;;5.40;99.90;;;;;;5098254;28;20281;-67
2021/12/05 03:43:29;;;;;;;25.70;22.75;;;5.40;99.90;;;;;;5112310;28;20241;-67
2021/12/05 03:45:57;;;;;;;24.45;20.42;;;5.40;99.90;;;;;;5106667;27;20230;-67
2021/12/05 03:48:28;;;;;;;23.20;19.75;;;5.40;99.90;;;;;;5112387;28;20214;-67
2021/12/05 03:50:56;;;;;;;29.45;22.70;;;5.40;99.90;;;;;;5100846;28;20591;-67
2021/12/05 03:53:23;;;;;;;24.92;21.23;;;5.40;99.90;;;;;;5105730;28;20223;-67
2021/12/05 03:55:54;;;;;;;26.17;22.02;;;5.40;99.90;;;;;;5116160;28;20218;-67
2021/12/05 03:58:22;;;;;;;24.42;21.50;;;5.40;99.90;;;;;;5104169;28;20223;-67
2021/12/05 04:00:55;;;;;;;27.60;22.77;;;5.40;99.90;;;;;;5114365;28;20230;-67
2021/12/05 04:03:23;;;;;;;25.88;21.00;;;5.40;99.90;;;;;;5115706;28;20237;-67
2021/12/05 04:05:51;;;;;;;26.67;22.70;;;5.40;99.90;;;;;;5104469;27;20221;-67
2021/12/05 04:08:20;;;;;;;30.65;23.55;;;5.50;99.90;;;;;;5109025;27;20223;-67
2021/12/05 04:10:51;;;;;;;27.13;21.75;;;5.50;99.90;;;;;;5115880;27;20227;-67
2021/12/05 04:13:19;;;;;;;26.33;22.73;;;5.50;99.90;;;;;;5115374;27;20583;-67
2021/12/05 04:15:50;;;;;;;29.73;22.45;;;5.50;99.90;;;;;;5107574;28;20228;-67
2021/12/05 04:18:19;;;;;;;26.17;21.95;;;5.50;99.90;;;;;;5108910;28;20226;-67
2021/12/05 04:20:46;;;;;;;26.60;20.98;;;5.50;99.90;;;;;;5105212;28;20230;-67
2021/12/05 04:23:13;;;;;;;25.80;22.70;;;5.50;99.90;;;;;;5101237;27;20234;-67
2021/12/05 04:25:41;;;;;;;28.40;22.27;;;5.50;99.90;;;;;;5116130;27;20230;-67
2021/12/05 04:28:10;;;;;;;27.17;22.25;;;5.50;99.90;;;;;;5111761;28;20223;-67
2021/12/05 04:30:38;;;;;;;26.15;21.63;;;5.50;99.90;;;;;;5102507;28;20239;-67
2021/12/05 04:33:06;;;;;;;28.92;22.95;;;5.60;99.90;;;;;;5110299;27;20239;-67
2021/12/05 04:35:34;;;;;;;27.27;22.10;;;5.60;99.90;;;;;;5108363;28;20615;-67
2021/12/05 04:38:01;;;;;;;28.55;24.20;;;5.60;99.90;;;;;;5109676;27;20235;-67
2021/12/05 04:40:28;;;;;;;29.08;23.08;;;5.60;99.90;;;;;;5115319;28;20356;-67
2021/12/05 04:42:56;;;;;;;26.73;20.52;;;5.60;99.90;;;;;;5114998;28;20580;-67
2021/12/05 04:45:24;;;;;;;31.40;24.20;;;5.70;99.90;;;;;;5115096;27;20577;-67
2021/12/05 04:47:52;;;;;;;28.13;22.33;;;5.70;99.90;;;;;;5115748;28;20234;-67
2021/12/05 04:50:20;;;;;;;29.58;22.80;;;5.70;99.90;;;;;;5114890;27;20622;-67
2021/12/05 04:52:48;;;;;;;25.73;22.17;;;5.70;99.90;;;;;;5115129;27;20226;-67
2021/12/05 04:55:17;;;;;;;26.45;23.63;;;5.70;99.90;;;;;;5115080;27;20233;-67
2021/12/05 04:57:45;;;;;;;29.02;23.58;;;5.70;99.90;;;;;;5112601;27;20223;-67
2021/12/05 05:00:18;;;;;;;30.10;21.98;;;5.70;99.90;;;;;;5114810;27;20237;-67
2021/12/05 05:02:45;;;;;;;27.70;22.15;;;5.70;99.90;;;;;;5101786;28;20229;-67
2021/12/05 05:05:13;;;;;;;30.20;23.60;;;5.70;99.90;;;;;;5114320;27;20219;-67
2021/12/05 05:07:42;;;;;;;25.88;23.08;;;5.70;99.90;;;;;;5114780;27;20798;-67
2021/12/05 05:10:14;;;;;;;28.20;22.25;;;5.70;99.90;;;;;;5113224;27;20623;-67
2021/12/05 05:12:41;;;;;;;25.98;20.98;;;5.60;99.90;;;;;;5115075;28;20614;-67
2021/12/05 05:15:11;;;;;;;28.38;21.20;;;5.60;99.90;;;;;;5107200;27;20230;-67
2021/12/05 05:17:39;;;;;;;28.58;22.60;;;5.70;99.90;;;;;;5115175;28;20597;-67
2021/12/05 05:20:19;;;;;;;28.88;22.27;;;5.60;99.90;;;;;;5101006;28;20576;-67
2021/12/05 05:22:59;;;;;;;27.27;23.23;;;5.60;99.90;;;;;;5102935;28;20258;-67
2021/12/05 05:26:07;;;;;;;26.40;21.52;;;5.60;99.90;;;;;;5102020;28;20287;-67
2021/12/05 05:39:44;;;;;;;27.35;21.48;;;5.50;99.90;;;;;;5100983;28;20569;-67
2021/12/05 05:42:46;;;;;;;27.48;22.60;;;5.50;99.90;;;;;;5110787;28;20218;-67
2021/12/05 05:45:47;;;;;;;32.75;22.90;;;5.60;99.90;;;;;;5102796;27;20215;-67
2021/12/05 05:48:37;;;;;;;28.88;23.52;;;5.60;99.90;;;;;;5114140;28;20222;-67
2021/12/05 05:51:06;;;;;;;29.55;23.83;;;5.50;99.90;;;;;;5100437;28;20227;-67
2021/12/05 05:53:34;;;;;;;27.92;22.42;;;5.60;99.90;;;;;;5102488;28;20234;-67
2021/12/05 05:56:02;;;;;;;29.58;23.40;;;5.50;99.90;;;;;;5107598;28;20224;-67
2021/12/05 05:58:40;;;;;;;29.90;22.40;;;5.60;99.90;;;;;;5105462;27;20222;-67
2021/12/05 06:01:17;;;;;;;32.22;22.75;;;5.60;99.90;;;;;;5100580;28;20244;-67
2021/12/05 06:03:44;;;;;;;29.83;23.30;;;5.70;99.90;;;;;;5112044;28;20219;-67
2021/12/05 06:06:13;;;;;;;34.05;24.40;;;5.60;99.90;;;;;;5101533;28;20250;-67
2021/12/05 06:08:42;;;;;;;30.17;23.42;;;5.60;99.90;;;;;;5111561;27;20479;-67
2021/12/05 06:11:11;;;;;;;30.58;24.23;;;5.70;99.90;;;;;;5102364;28;20230;-67
2021/12/05 06:13:40;;;;;;;38.67;27.60;;;5.70;99.90;;;;;;5112083;27;20218;-67
2021/12/05 06:16:09;;;;;;;30.90;22.67;;;5.70;99.90;;;;;;5113882;27;20227;-67
2021/12/05 06:18:36;;;;;;;30.35;24.58;;;5.70;99.90;;;;;;5113254;27;20223;-67
2021/12/05 06:21:04;;;;;;;31.60;23.95;;;5.70;99.90;;;;;;5113542;27;20261;-67
2021/12/05 06:23:32;;;;;;;32.15;23.80;;;5.70;99.90;;;;;;5113299;27;20227;-67
2021/12/05 06:25:59;;;;;;;33.25;23.45;;;5.70;99.90;;;;;;5113946;27;20230;-67
2021/12/05 06:28:33;;;;;;;34.40;24.27;;;5.80;99.90;;;;;;5113246;27;20223;-67
2021/12/05 06:31:09;;;;;;;33.13;26.02;;;5.70;99.90;;;;;;5113595;28;20289;-67
2021/12/05 06:41:57;;;;;;;31.58;24.38;;;5.60;99.90;;;;;;5113499;27;20250;-67
2021/12/05 06:47:12;;;;;;;30.95;21.98;;;5.50;99.90;;;;;;5112694;27;20229;-67
2021/12/05 06:49:40;;;;;;;28.55;23.15;;;5.50;99.90;;;;;;5113330;27;20291;-67
2021/12/05 06:52:08;;;;;;;31.50;25.52;;;5.40;99.90;;;;;;5112980;27;20226;-67
2021/12/05 06:54:36;;;;;;;29.75;24.10;;;5.40;99.90;;;;;;5113501;27;20565;-67
2021/12/05 06:57:03;;;;;;;29.80;23.88;;;5.40;99.90;;;;;;5113236;27;20253;-68
2021/12/05 06:59:31;;;;;;;31.15;24.50;;;5.40;99.90;;;;;;5112925;27;20218;-67
2021/12/05 07:01:58;;;;;;;29.20;24.30;;;5.30;99.90;;;;;;5113207;27;20229;-67
2021/12/05 07:04:47;;;;;;;32.38;25.50;;;5.30;99.90;;;;;;5112766;27;20226;-67
2021/12/05 07:07:19;;;;;;;31.17;23.38;;;5.30;99.90;;;;;;5112581;27;20234;-67
2021/12/05 07:09:47;;;;;;;34.15;25.92;;;5.30;99.90;;;;;;5113182;27;20246;-67
2021/12/05 07:12:47;;;;;;;33.15;25.10;;;5.20;99.90;;;;;;5112818;27;20753;-67
2021/12/05 07:15:17;;;;;;;28.70;23.70;;;5.30;99.90;;;;;;5112683;27;20226;-67
2021/12/05 07:20:47;;;;;;;30.50;23.98;;;5.30;99.90;;;;;;5112421;27;20229;-67
2021/12/05 07:23:26;;;;;;;30.63;25.38;;;5.30;99.90;;;;;;5112292;27;20225;-67
2021/12/05 07:26:06;;;;;;;29.20;23.08;;;5.30;99.90;;;;;;5117156;28;20593;-67
2021/12/05 07:42:22;;;;;;;28.95;25.40;;;5.30;99.90;;;;;;5116878;28;20226;-67
2021/12/05 07:44:50;;;;;;;30.00;23.27;;;5.30;99.90;;;;;;5116646;28;20223;-68
2021/12/05 07:47:19;;;;;;;30.10;24.23;;;5.40;99.90;;;;;;5116877;28;20226;-67
2021/12/05 07:49:47;;;;;;;27.83;22.58;;;5.40;99.90;;;;;;5116234;28;20633;-67
2021/12/05 07:52:20;;;;;;;31.42;24.25;;;5.40;99.90;;;;;;5116883;28;20614;-67
2021/12/05 07:54:53;;;;;;;33.42;24.45;;;5.40;99.90;;;;;;5116402;27;20244;-67
2021/12/05 07:57:24;;;;;;;30.65;23.33;;;5.40;99.90;;;;;;5116636;27;20817;-68
2021/12/05 08:00:05;;;;;;;31.95;24.08;;;5.40;99.90;;;;;;5116177;27;20241;-67
2021/12/05 08:16:18;;;;;;;32.72;24.45;;;5.50;99.90;;;;;;5116921;28;20302;-67
2021/12/05 08:18:45;;;;;;;33.40;24.75;;;5.40;99.90;;;;;;5116128;28;20221;-67
2021/12/05 08:21:13;;;;;;;30.25;24.30;;;5.40;99.90;;;;;;5116207;27;20277;-67
2021/12/05 08:23:41;;;;;;;32.30;26.38;;;5.40;99.90;;;;;;5115747;27;20600;-67
2021/12/05 08:26:13;;;;;;;33.78;27.02;;;5.40;99.90;;;;;;5116225;28;20222;-67
2021/12/05 08:29:03;;;;;;;37.92;27.73;;;5.40;99.90;;;;;;5115753;28;20238;-66
2021/12/05 08:31:43;;;;;;;35.95;27.10;;;5.30;99.90;;;;;;5115704;27;20239;-66
2021/12/05 08:34:32;;;;;;;31.75;26.60;;;5.30;99.90;;;;;;5115673;28;20222;-66
2021/12/05 08:37:27;;;;;;;35.30;24.10;;;5.40;99.90;;;;;;5115578;28;20230;-66
2021/12/05 08:43:03;;;;;;;34.15;25.80;;;5.50;99.90;;;;;;5115831;28;20238;-66
2021/12/05 09:24:34;;;;;;;36.78;27.33;;;5.80;99.90;;;;;;5094348;28;20222;-67
2021/12/05 09:27:32;;;;;;;42.38;27.10;;;5.80;99.90;;;;;;5094153;28;20223;-67
2021/12/05 10:03:08;;;;;;;42.75;32.15;;;5.80;99.90;;;;;;5114335;27;20359;-67
2021/12/05 10:08:44;;;;;;;43.47;29.70;;;5.80;99.90;;;;;;5113566;27;20332;-67
2021/12/05 10:16:53;;;;;;;41.85;30.25;;;5.80;99.90;;;;;;5106637;27;20321;-67
2021/12/05 10:19:58;;;;;;;43.47;31.45;;;5.90;99.90;;;;;;5114285;27;20249;-67
2021/12/05 10:36:15;;;;;;;47.20;31.58;;;6.00;99.90;;;;;;5113041;27;20275;-67
2021/12/05 10:38:47;;;;;;;49.13;32.28;;;6.00;99.90;;;;;;5113722;28;20680;-67
2021/12/05 10:41:47;;;;;;;45.88;30.85;;;6.00;99.90;;;;;;5113110;28;20253;-67
2021/12/05 10:44:16;;;;;;;45.38;31.20;;;6.10;99.90;;;;;;5113298;28;20232;-67
2021/12/05 10:46:49;;;;;;;46.10;31.65;;;6.10;99.90;;;;;;5113370;27;20223;-68
2021/12/05 10:49:18;;;;;;;46.42;31.00;;;6.20;99.90;;;;;;5113311;28;21309;-68
2021/12/05 10:51:49;;;;;;;51.58;33.88;;;6.20;99.90;;;;;;5113454;28;20230;-68
2021/12/05 10:54:19;;;;;;;42.65;31.40;;;6.20;99.90;;;;;;5112844;28;20234;-68
2021/12/05 10:56:50;;;;;;;45.03;31.90;;;6.20;99.90;;;;;;5113476;27;20215;-66
2021/12/05 10:59:20;;;;;;;42.28;30.00;;;6.30;99.90;;;;;;5112640;28;20230;-67
2021/12/05 11:01:49;;;;;;;42.83;30.77;;;6.30;99.90;;;;;;5113282;28;20219;-67
2021/12/05 11:04:18;;;;;;;45.08;29.75;;;6.30;99.90;;;;;;5112794;28;20219;-67
2021/12/05 11:06:51;;;;;;;43.30;30.88;;;6.20;99.90;;;;;;5113048;28;20226;-67
2021/12/05 11:09:25;;;;;;;40.28;30.42;;;6.20;99.90;;;;;;5113083;28;20226;-67
2021/12/05 11:11:55;;;;;;;44.60;29.55;;;6.20;99.90;;;;;;5113133;28;20246;-67
2021/12/05 11:14:25;;;;;;;43.45;28.88;;;6.20;99.90;;;;;;5112737;28;20223;-68
2021/12/05 11:17:01;;;;;;;41.30;30.77;;;6.20;99.90;;;;;;5113235;28;20214;-67
2021/12/05 11:19:33;;;;;;;46.75;30.90;;;6.20;99.90;;;;;;5112898;28;20948;-67
2021/12/05 11:22:06;;;;;;;44.63;28.90;;;6.20;99.90;;;;;;5112947;28;20246;-67
2021/12/05 11:24:36;;;;;;;43.15;31.45;;;6.20;99.90;;;;;;5112679;27;20888;-67
2021/12/05 11:27:31;;;;;;;47.35;32.85;;;6.20;99.90;;;;;;5113069;27;20223;-67
2021/12/05 11:30:13;;;;;;;39.78;30.83;;;6.20;99.90;;;;;;5112106;27;20219;-68
2021/12/05 11:32:44;;;;;;;43.28;29.60;;;6.20;99.90;;;;;;5112686;27;20226;-68
2021/12/05 11:35:31;;;;;;;45.20;30.90;;;6.20;99.90;;;;;;5112259;27;20219;-69
2021/12/05 11:38:05;;;;;;;44.53;31.23;;;6.30;99.90;;;;;;5112674;28;20230;-68
2021/12/05 11:40:46;;;;;;;41.03;31.00;;;6.30;99.90;;;;;;5112181;28;20229;-68
2021/12/05 11:43:16;;;;;;;42.67;31.77;;;6.30;99.90;;;;;;5112403;28;20304;-67
2021/12/05 11:45:53;;;;;;;44.08;29.58;;;6.30;99.90;;;;;;5113001;28;20560;-68
2021/12/05 11:48:22;;;;;;;44.33;30.58;;;6.40;99.90;;;;;;5112600;28;20242;-68
2021/12/05 11:50:50;;;;;;;46.15;30.65;;;6.40;99.90;;;;;;5112665;28;20226;-69
2021/12/05 11:53:38;;;;;;;43.88;31.92;;;6.40;99.90;;;;;;5112139;28;20700;-68
2021/12/05 11:56:05;;;;;;;53.13;33.90;;;6.50;99.90;;;;;;5112265;28;20222;-68
2021/12/05 11:58:32;;;;;;;46.17;32.50;;;6.50;99.90;;;;;;5112955;28;20218;-68
2021/12/05 12:01:06;;;;;;;48.25;32.80;;;6.50;99.90;;;;;;5112156;28;20230;-67
2021/12/05 12:03:34;;;;;;;51.97;35.40;;;6.50;99.90;;;;;;5112587;28;20218;-68
2021/12/05 12:06:02;;;;;;;43.63;32.55;;;6.50;99.90;;;;;;5112277;28;20222;-68
2021/12/05 12:08:30;;;;;;;46.65;33.35;;;6.50;99.90;;;;;;5112541;28;20677;-67
2021/12/05 12:11:01;;;;;;;43.38;31.77;;;6.50;99.90;;;;;;5112870;28;20235;-68
2021/12/05 12:13:31;;;;;;;45.58;33.00;;;6.50;99.90;;;;;;5116229;27;20227;-68
2021/12/05 12:16:02;;;;;;;45.78;32.10;;;6.40;99.90;;;;;;5116105;27;20571;-68
2021/12/05 12:18:33;;;;;;;44.50;31.30;;;6.50;99.90;;;;;;5116488;27;20291;-69
2021/12/05 12:21:05;;;;;;;47.72;31.33;;;6.40;99.90;;;;;;5115812;27;20231;-68
2021/12/05 12:23:33;;;;;;;60.70;45.55;;;6.40;99.90;;;;;;5116165;27;20219;-67
2021/12/05 12:26:03;;;;;;;79.20;58.92;;;6.30;99.90;;;;;;5115902;28;20254;-68
2021/12/05 12:28:31;;;;;;;62.80;47.45;;;6.30;99.90;;;;;;5116223;28;20233;-68
2021/12/05 12:31:02;;;;;;;53.65;41.38;;;6.30;99.90;;;;;;5115936;28;20241;-68
2021/12/05 12:33:33;;;;;;;54.38;40.85;;;6.30;99.90;;;;;;5115829;27;20299;-68
2021/12/05 12:36:00;;;;;;;71.78;52.47;;;6.30;99.90;;;;;;5112340;28;20227;-68
2021/12/05 12:38:37;;;;;;;53.92;40.88;;;6.30;99.90;;;;;;5115464;27;20226;-68
2021/12/05 12:41:14;;;;;;;56.65;43.70;;;6.30;99.90;;;;;;5115986;28;20230;-67
2021/12/05 12:43:52;;;;;;;51.63;38.40;;;6.30;99.90;;;;;;5115832;27;20225;-68
2021/12/05 12:46:37;;;;;;;58.88;43.50;;;6.20;99.90;;;;;;5115543;28;20957;-68
2021/12/05 12:49:24;;;;;;;61.35;47.00;;;6.30;99.90;;;;;;5114404;27;20229;-68
2021/12/05 12:51:56;;;;;;;51.25;38.47;;;6.20;99.90;;;;;;5115661;28;20226;-68
2021/12/05 12:54:28;;;;;;;48.38;34.78;;;6.20;99.90;;;;;;5115035;28;20238;-68
2021/12/05 12:57:07;;;;;;;48.60;35.85;;;6.30;99.90;;;;;;5115542;27;20219;-68
2021/12/05 12:59:38;;;;;;;50.45;35.13;;;6.30;99.90;;;;;;5115981;28;20668;-67
2021/12/05 13:05:34;;;;;;;46.85;34.63;;;6.30;99.90;;;;;;5115001;27;20226;-68
2021/12/05 13:11:00;;;;;;;50.92;31.73;;;6.30;99.90;;;;;;5114695;28;20226;-67
2021/12/05 13:13:29;;;;;;;41.58;29.52;;;6.30;99.90;;;;;;5115382;27;20253;-67
2021/12/05 13:16:00;;;;;;;44.67;33.47;;;6.30;99.90;;;;;;5114983;27;20676;-67
2021/12/05 13:18:30;;;;;;;37.65;31.02;;;6.30;99.90;;;;;;5115136;27;20309;-67
2021/12/05 13:21:05;;;;;;;45.17;31.17;;;6.40;99.90;;;;;;5114541;27;20226;-68
2021/12/05 13:23:53;;;;;;;46.00;33.90;;;6.30;99.90;;;;;;5114979;27;20541;-68
2021/12/05 13:26:26;;;;;;;45.50;33.28;;;6.30;99.90;;;;;;5110798;28;20215;-67
2021/12/05 13:28:56;;;;;;;48.92;34.47;;;6.30;99.90;;;;;;5114798;28;20215;-67
2021/12/05 13:31:46;;;;;;;46.00;34.75;;;6.30;99.90;;;;;;5114841;28;20234;-67
2021/12/05 13:34:22;;;;;;;47.35;34.30;;;6.40;99.90;;;;;;5114464;27;20211;-67
2021/12/05 13:36:51;;;;;;;51.47;35.13;;;6.30;99.90;;;;;;5114610;27;20223;-67
2021/12/05 13:39:36;;;;;;;50.20;35.13;;;6.40;99.90;;;;;;5114383;28;20237;-68
2021/12/05 13:42:10;;;;;;;45.15;33.25;;;6.40;99.90;;;;;;5113718;28;20226;-68
2021/12/05 13:45:10;;;;;;;46.97;33.38;;;6.30;99.90;;;;;;5114251;28;20218;-67
2021/12/05 13:47:42;;;;;;;43.92;32.55;;;6.40;99.90;;;;;;5114473;27;20560;-67
2021/12/05 13:50:32;;;;;;;48.35;32.40;;;6.40;99.90;;;;;;5114232;28;20249;-67
2021/12/05 13:53:16;;;;;;;46.65;32.55;;;6.30;99.90;;;;;;5114198;27;20218;-67
2021/12/05 13:55:49;;;;;;;55.72;35.60;;;6.30;99.90;;;;;;5112395;27;20233;-67
2021/12/05 13:58:23;;;;;;;49.83;31.17;;;6.30;99.90;;;;;;5113913;27;20218;-67
2021/12/05 14:00:57;;;;;;;47.65;32.63;;;6.30;99.90;;;;;;5114364;27;20552;-67
2021/12/05 14:03:50;;;;;;;47.47;33.85;;;6.20;99.90;;;;;;5114080;27;21273;-67
2021/12/05 14:06:42;;;;;;;49.75;33.10;;;6.20;99.90;;;;;;5112990;27;20230;-67
2021/12/05 14:09:14;;;;;;;52.28;35.72;;;6.20;99.90;;;;;;5113777;27;20237;-68
2021/12/05 14:11:49;;;;;;;56.42;36.00;;;6.20;99.90;;;;;;5114280;27;20222;-68
2021/12/05 14:14:19;;;;;;;54.28;34.40;;;6.10;99.90;;;;;;5113074;27;20568;-68
2021/12/05 14:16:49;;;;;;;48.58;33.92;;;6.10;99.90;;;;;;5113968;27;20218;-68
2021/12/05 14:19:17;;;;;;;44.38;31.83;;;6.10;99.90;;;;;;5113497;27;20246;-68
2021/12/05 14:21:48;;;;;;;48.97;32.83;;;6.10;99.90;;;;;;5113576;27;20229;-68
2021/12/05 14:24:17;;;;;;;50.22;34.03;;;6.10;99.90;;;;;;5104976;27;20251;-68
2021/12/05 14:26:44;;;;;;;51.30;33.15;;;6.00;99.90;;;;;;5110854;27;20214;-68
2021/12/05 14:29:13;;;;;;;47.85;32.22;;;6.00;99.90;;;;;;5110668;27;20234;-67
2021/12/05 14:31:44;;;;;;;56.30;38.92;;;6.10;99.90;;;;;;5110713;28;20545;-68
2021/12/05 14:34:12;;;;;;;49.28;35.72;;;6.10;99.90;;;;;;5105279;28;20226;-68
2021/12/05 14:36:43;;;;;;;52.15;37.80;;;6.10;99.90;;;;;;5104542;27;20238;-68
2021/12/05 14:39:18;;;;;;;49.03;35.38;;;6.10;99.90;;;;;;5105574;28;20563;-67
2021/12/05 14:41:47;;;;;;;45.58;33.60;;;6.10;99.90;;;;;;5112708;27;20253;-67
2021/12/05 14:44:15;;;;;;;46.65;33.40;;;6.10;99.90;;;;;;5111379;28;20237;-68
2021/12/05 14:46:59;;;;;;;52.17;36.78;;;6.20;99.90;;;;;;5102061;28;20575;-67
2021/12/05 14:49:30;;;;;;;48.97;33.72;;;6.20;99.90;;;;;;5098954;28;20230;-67
2021/12/05 14:51:58;;;;;;;44.78;33.70;;;6.20;99.90;;;;;;5105270;28;20237;-68
2021/12/05 14:54:30;;;;;;;55.17;44.88;;;6.20;99.90;;;;;;5107247;28;20227;-66
2021/12/05 14:56:58;;;;;;;52.95;39.88;;;6.20;99.90;;;;;;5106025;28;20699;-67
2021/12/05 14:59:25;;;;;;;52.40;40.92;;;6.20;99.90;;;;;;5112663;27;20226;-66
2021/12/05 15:01:56;;;;;;;45.22;34.28;;;6.10;99.90;;;;;;5099729;28;20227;-67
2021/12/05 15:04:28;;;;;;;47.47;35.42;;;6.10;99.90;;;;;;5099666;28;20221;-68
2021/12/05 15:06:55;;;;;;;40.17;32.20;;;6.10;99.90;;;;;;5111629;28;20226;-68
2021/12/05 15:09:30;;;;;;;46.97;37.15;;;6.10;99.90;;;;;;5100507;28;20266;-67
2021/12/05 15:12:01;;;;;;;62.25;44.20;;;6.10;99.90;;;;;;5099384;28;20239;-68
2021/12/05 15:14:29;;;;;;;45.95;36.08;;;6.10;99.90;;;;;;5102255;28;20251;-68
2021/12/05 15:17:11;;;;;;;54.67;40.70;;;6.10;99.90;;;;;;5106246;28;20307;-68
2021/12/05 15:19:41;;;;;;;54.95;38.13;;;6.10;99.90;;;;;;5105039;28;20306;-67
2021/12/05 15:22:09;;;;;;;61.70;42.47;;;6.10;99.90;;;;;;5098893;28;20219;-68
2021/12/05 15:24:36;;;;;;;57.38;43.53;;;6.10;99.90;;;;;;5105080;27;20234;-68
2021/12/05 15:27:11;;;;;;;88.07;58.13;;;6.20;99.90;;;;;;5105657;28;20219;-68
2021/12/05 15:29:38;;;;;;;82.78;54.38;;;6.20;99.90;;;;;;5105611;28;20245;-68
2021/12/05 15:32:15;;;;;;;75.13;55.50;;;6.10;99.90;;;;;;5104860;28;20240;-67
2021/12/05 15:34:42;;;;;;;57.05;38.63;;;6.10;99.90;;;;;;5109923;28;20222;-67
2021/12/05 15:37:12;;;;;;;61.25;44.30;;;6.00;99.90;;;;;;5102469;28;20310;-69
2021/12/05 15:39:42;;;;;;;57.65;44.05;;;6.00;99.90;;;;;;5105616;28;20238;-67
2021/12/05 15:42:25;;;;;;;63.47;46.40;;;5.90;99.90;;;;;;5103884;28;20230;-66
2021/12/05 15:44:54;;;;;;;55.72;37.55;;;5.90;99.90;;;;;;5099378;28;20997;-67
2021/12/05 15:47:25;;;;;;;49.13;37.05;;;5.80;99.90;;;;;;5116416;27;20226;-67
2021/12/05 15:50:01;;;;;;;63.47;44.47;;;5.80;99.90;;;;;;5104023;27;20226;-67
2021/12/05 15:52:34;;;;;;;57.83;41.08;;;5.80;99.90;;;;;;5116122;27;20230;-68
2021/12/05 15:55:04;;;;;;;59.40;37.58;;;5.80;99.90;;;;;;5116478;27;20696;-68
2021/12/05 15:57:33;;;;;;;54.85;40.42;;;5.80;99.90;;;;;;5112370;28;20702;-68
2021/12/05 16:00:05;;;;;;;71.35;49.17;;;5.80;99.90;;;;;;5107237;28;20223;-67
2021/12/05 16:02:33;;;;;;;73.30;53.20;;;5.70;99.90;;;;;;5110997;27;20223;-68
2021/12/05 16:05:01;;;;;;;64.40;45.17;;;5.70;99.90;;;;;;5108237;28;20283;-68
2021/12/05 16:07:32;;;;;;;62.88;41.70;;;5.60;99.90;;;;;;5099260;28;20224;-68
2021/12/05 16:10:12;;;;;;;80.57;47.38;;;5.60;99.90;;;;;;5111193;28;20223;-68
2021/12/05 16:12:43;;;;;;;96.45;56.42;;;5.60;99.90;;;;;;5103787;27;20283;-68
2021/12/05 16:15:11;;;;;;;74.80;49.35;;;5.60;99.90;;;;;;5114173;28;20245;-67
2021/12/05 16:17:41;;;;;;;71.57;44.60;;;5.60;99.90;;;;;;5113379;27;20680;-68
2021/12/05 16:20:19;;;;;;;67.95;43.35;;;5.60;99.90;;;;;;5113157;27;20318;-67
2021/12/05 16:23:06;;;;;;;79.97;47.05;;;5.70;99.90;;;;;;5104860;27;20287;-67
2021/12/05 16:25:36;;;;;;;61.72;39.53;;;5.80;99.90;;;;;;5104847;27;20680;-67
2021/12/05 16:28:05;;;;;;;70.57;42.38;;;5.80;99.90;;;;;;5115836;28;20214;-66
2021/12/05 16:30:36;;;;;;;74.47;41.85;;;5.80;99.90;;;;;;5105593;28;20223;-67
2021/12/05 16:33:06;;;;;;;84.35;46.40;;;5.80;99.90;;;;;;5112899;28;20218;-67
2021/12/05 16:35:37;;;;;;;56.75;36.45;;;5.90;99.90;;;;;;5113183;28;20226;-67
2021/12/05 16:38:24;;;;;;;56.53;36.95;;;5.80;99.90;;;;;;5101829;28;20636;-67
2021/12/05 16:40:57;;;;;;;51.05;34.38;;;5.80;99.90;;;;;;5101586;28;20596;-67
2021/12/05 16:43:26;;;;;;;58.55;37.97;;;5.70;99.90;;;;;;5107208;28;20246;-67
2021/12/05 16:45:57;;;;;;;60.45;38.80;;;5.70;99.90;;;;;;5108589;27;20669;-67
2021/12/05 16:48:26;;;;;;;54.55;34.85;;;5.60;99.90;;;;;;5105236;28;20229;-67